sensor_id;sensor_type;location;lat;lon;timestamp;P1;durP1;ratioP1;P2;durP2;ratioP2
5953;SDS011;3002;42.642;24.812;2022-12-10T00:01:17;31.27;;;12.07;;
5953;SDS011;3002;42.642;24.812;2022-12-10T00:03:44;17.03;;;7.43;;
5953;SDS011;3002;42.642;24.812;2022-12-10T00:06:11;18.13;;;7.37;;
5953;SDS011;3002;42.642;24.812;2022-12-10T00:08:38;45.43;;;10.60;;
5953;SDS011;3002;42.642;24.812;2022-12-10T00:11:05;9.10;;;6.10;;
5953;SDS011;3002;42.642;24.812;2022-12-10T00:13:32;13.90;;;6.07;;
5953;SDS011;3002;42.642;24.812;2022-12-10T00:15:59;17.70;;;7.57;;
5953;SDS011;3002;42.642;24.812;2022-12-10T00:18:25;17.13;;;7.40;;
5953;SDS011;3002;42.642;24.812;2022-12-10T00:20:51;18.03;;;8.73;;
5953;SDS011;3002;42.642;24.812;2022-12-10T00:23:16;20.80;;;8.97;;
5953;SDS011;3002;42.642;24.812;2022-12-10T00:25:42;12.00;;;7.57;;
5953;SDS011;3002;42.642;24.812;2022-12-10T00:28:07;18.40;;;8.20;;
5953;SDS011;3002;42.642;24.812;2022-12-10T00:30:33;20.10;;;6.73;;
5953;SDS011;3002;42.642;24.812;2022-12-10T00:32:59;32.33;;;11.40;;
5953;SDS011;3002;42.642;24.812;2022-12-10T00:35:25;37.50;;;12.77;;
5953;SDS011;3002;42.642;24.812;2022-12-10T00:37:51;21.33;;;9.47;;
5953;SDS011;3002;42.642;24.812;2022-12-10T00:40:16;20.30;;;9.40;;
5953;SDS011;3002;42.642;24.812;2022-12-10T00:42:42;39.27;;;13.10;;
5953;SDS011;3002;42.642;24.812;2022-12-10T00:45:07;20.40;;;9.13;;
5953;SDS011;3002;42.642;24.812;2022-12-10T00:47:33;17.87;;;8.90;;
5953;SDS011;3002;42.642;24.812;2022-12-10T00:50:01;33.73;;;11.70;;
5953;SDS011;3002;42.642;24.812;2022-12-10T00:52:30;20.80;;;8.63;;
5953;SDS011;3002;42.642;24.812;2022-12-10T00:54:56;27.30;;;9.90;;
5953;SDS011;3002;42.642;24.812;2022-12-10T00:57:21;20.97;;;7.07;;
5953;SDS011;3002;42.642;24.812;2022-12-10T00:59:47;27.97;;;7.47;;
5953;SDS011;3002;42.642;24.812;2022-12-10T01:02:12;23.93;;;9.10;;
5953;SDS011;3002;42.642;24.812;2022-12-10T01:04:37;17.93;;;8.00;;
5953;SDS011;3002;42.642;24.812;2022-12-10T01:07:03;12.40;;;5.93;;
5953;SDS011;3002;42.642;24.812;2022-12-10T01:09:29;20.73;;;8.90;;
5953;SDS011;3002;42.642;24.812;2022-12-10T01:11:56;17.17;;;6.70;;
5953;SDS011;3002;42.642;24.812;2022-12-10T01:14:28;23.40;;;8.30;;
5953;SDS011;3002;42.642;24.812;2022-12-10T01:16:56;12.87;;;6.33;;
5953;SDS011;3002;42.642;24.812;2022-12-10T01:19:23;28.73;;;5.40;;
5953;SDS011;3002;42.642;24.812;2022-12-10T01:21:49;15.17;;;6.30;;
5953;SDS011;3002;42.642;24.812;2022-12-10T01:24:16;11.67;;;5.43;;
5953;SDS011;3002;42.642;24.812;2022-12-10T01:26:41;37.43;;;10.33;;
5953;SDS011;3002;42.642;24.812;2022-12-10T01:29:07;15.67;;;7.60;;
5953;SDS011;3002;42.642;24.812;2022-12-10T01:31:36;18.07;;;7.10;;
5953;SDS011;3002;42.642;24.812;2022-12-10T01:34:02;21.13;;;5.80;;
5953;SDS011;3002;42.642;24.812;2022-12-10T01:36:33;13.53;;;7.47;;
5953;SDS011;3002;42.642;24.812;2022-12-10T01:39:01;11.37;;;5.03;;
5953;SDS011;3002;42.642;24.812;2022-12-10T01:41:32;11.33;;;6.30;;
5953;SDS011;3002;42.642;24.812;2022-12-10T01:44:02;6.13;;;3.60;;
5953;SDS011;3002;42.642;24.812;2022-12-10T01:46:51;12.80;;;4.83;;
5953;SDS011;3002;42.642;24.812;2022-12-10T01:49:22;7.80;;;3.90;;
5953;SDS011;3002;42.642;24.812;2022-12-10T01:51:52;16.97;;;5.50;;
5953;SDS011;3002;42.642;24.812;2022-12-10T01:54:21;8.33;;;4.10;;
5953;SDS011;3002;42.642;24.812;2022-12-10T01:57:00;8.03;;;3.30;;
5953;SDS011;3002;42.642;24.812;2022-12-10T01:59:31;9.17;;;3.13;;
5953;SDS011;3002;42.642;24.812;2022-12-10T02:04:54;10.37;;;3.27;;
5953;SDS011;3002;42.642;24.812;2022-12-10T02:07:29;6.47;;;2.90;;
5953;SDS011;3002;42.642;24.812;2022-12-10T02:10:17;10.53;;;3.70;;
5953;SDS011;3002;42.642;24.812;2022-12-10T02:13:06;10.03;;;5.10;;
5953;SDS011;3002;42.642;24.812;2022-12-10T02:15:47;10.57;;;4.30;;
5953;SDS011;3002;42.642;24.812;2022-12-10T02:18:19;15.50;;;4.60;;
5953;SDS011;3002;42.642;24.812;2022-12-10T02:20:50;15.53;;;5.50;;
5953;SDS011;3002;42.642;24.812;2022-12-10T02:23:34;14.17;;;5.77;;
5953;SDS011;3002;42.642;24.812;2022-12-10T02:26:09;17.70;;;6.40;;
5953;SDS011;3002;42.642;24.812;2022-12-10T02:31:20;13.03;;;5.70;;
5953;SDS011;3002;42.642;24.812;2022-12-10T02:33:51;20.67;;;7.47;;
5953;SDS011;3002;42.642;24.812;2022-12-10T02:36:20;15.47;;;5.50;;
5953;SDS011;3002;42.642;24.812;2022-12-10T02:38:49;12.67;;;6.60;;
5953;SDS011;3002;42.642;24.812;2022-12-10T02:41:26;10.80;;;5.40;;
5953;SDS011;3002;42.642;24.812;2022-12-10T02:43:58;11.83;;;5.57;;
5953;SDS011;3002;42.642;24.812;2022-12-10T02:46:26;20.03;;;6.37;;
5953;SDS011;3002;42.642;24.812;2022-12-10T02:48:55;10.47;;;5.50;;
5953;SDS011;3002;42.642;24.812;2022-12-10T02:51:23;18.27;;;7.10;;
5953;SDS011;3002;42.642;24.812;2022-12-10T02:53:57;15.00;;;5.50;;
5953;SDS011;3002;42.642;24.812;2022-12-10T02:56:30;14.13;;;6.30;;
5953;SDS011;3002;42.642;24.812;2022-12-10T02:59:23;9.30;;;4.40;;
5953;SDS011;3002;42.642;24.812;2022-12-10T03:02:16;12.60;;;5.83;;
5953;SDS011;3002;42.642;24.812;2022-12-10T03:10:04;13.40;;;5.90;;
5953;SDS011;3002;42.642;24.812;2022-12-10T03:12:39;8.87;;;5.33;;
5953;SDS011;3002;42.642;24.812;2022-12-10T03:15:09;15.97;;;7.40;;
5953;SDS011;3002;42.642;24.812;2022-12-10T03:17:36;14.20;;;5.87;;
5953;SDS011;3002;42.642;24.812;2022-12-10T03:20:03;13.97;;;5.77;;
5953;SDS011;3002;42.642;24.812;2022-12-10T03:22:33;11.43;;;4.77;;
5953;SDS011;3002;42.642;24.812;2022-12-10T03:25:02;15.00;;;6.53;;
5953;SDS011;3002;42.642;24.812;2022-12-10T03:27:28;12.67;;;5.10;;
5953;SDS011;3002;42.642;24.812;2022-12-10T03:29:55;10.23;;;5.23;;
5953;SDS011;3002;42.642;24.812;2022-12-10T03:32:23;9.40;;;4.57;;
5953;SDS011;3002;42.642;24.812;2022-12-10T03:34:51;10.40;;;3.20;;
5953;SDS011;3002;42.642;24.812;2022-12-10T03:37:18;18.10;;;4.90;;
5953;SDS011;3002;42.642;24.812;2022-12-10T03:39:46;10.80;;;5.07;;
5953;SDS011;3002;42.642;24.812;2022-12-10T03:42:12;13.70;;;4.93;;
5953;SDS011;3002;42.642;24.812;2022-12-10T03:44:38;16.17;;;5.60;;
5953;SDS011;3002;42.642;24.812;2022-12-10T03:47:05;19.67;;;4.80;;
5953;SDS011;3002;42.642;24.812;2022-12-10T03:49:33;14.73;;;5.10;;
5953;SDS011;3002;42.642;24.812;2022-12-10T03:51:59;11.27;;;4.83;;
5953;SDS011;3002;42.642;24.812;2022-12-10T03:54:24;7.20;;;3.10;;
5953;SDS011;3002;42.642;24.812;2022-12-10T03:56:50;8.47;;;3.57;;
5953;SDS011;3002;42.642;24.812;2022-12-10T03:59:16;3.50;;;2.17;;
5953;SDS011;3002;42.642;24.812;2022-12-10T04:01:41;10.43;;;3.10;;
5953;SDS011;3002;42.642;24.812;2022-12-10T04:04:07;17.10;;;4.40;;
5953;SDS011;3002;42.642;24.812;2022-12-10T04:06:33;20.37;;;4.93;;
5953;SDS011;3002;42.642;24.812;2022-12-10T04:08:58;15.40;;;6.30;;
5953;SDS011;3002;42.642;24.812;2022-12-10T04:11:24;17.23;;;4.60;;
5953;SDS011;3002;42.642;24.812;2022-12-10T04:13:51;10.80;;;3.87;;
5953;SDS011;3002;42.642;24.812;2022-12-10T04:16:35;15.80;;;5.60;;
5953;SDS011;3002;42.642;24.812;2022-12-10T04:19:05;20.93;;;7.13;;
5953;SDS011;3002;42.642;24.812;2022-12-10T04:21:33;15.53;;;6.10;;
5953;SDS011;3002;42.642;24.812;2022-12-10T04:24:20;21.10;;;7.00;;
5953;SDS011;3002;42.642;24.812;2022-12-10T04:27:10;17.00;;;7.70;;
5953;SDS011;3002;42.642;24.812;2022-12-10T04:29:57;11.03;;;4.03;;
5953;SDS011;3002;42.642;24.812;2022-12-10T04:32:24;19.07;;;6.07;;
5953;SDS011;3002;42.642;24.812;2022-12-10T04:34:50;11.47;;;4.50;;
5953;SDS011;3002;42.642;24.812;2022-12-10T04:37:16;14.83;;;5.80;;
5953;SDS011;3002;42.642;24.812;2022-12-10T04:42:33;33.03;;;9.57;;
5953;SDS011;3002;42.642;24.812;2022-12-10T04:44:58;48.27;;;8.50;;
5953;SDS011;3002;42.642;24.812;2022-12-10T04:47:24;26.30;;;5.30;;
5953;SDS011;3002;42.642;24.812;2022-12-10T04:49:49;47.90;;;6.57;;
5953;SDS011;3002;42.642;24.812;2022-12-10T04:52:16;19.10;;;7.30;;
5953;SDS011;3002;42.642;24.812;2022-12-10T04:54:42;16.63;;;6.20;;
5953;SDS011;3002;42.642;24.812;2022-12-10T04:57:08;16.50;;;7.77;;
5953;SDS011;3002;42.642;24.812;2022-12-10T04:59:35;14.83;;;5.50;;
5953;SDS011;3002;42.642;24.812;2022-12-10T05:02:01;24.40;;;6.70;;
5953;SDS011;3002;42.642;24.812;2022-12-10T05:04:26;20.10;;;8.20;;
5953;SDS011;3002;42.642;24.812;2022-12-10T05:06:52;21.00;;;7.77;;
5953;SDS011;3002;42.642;24.812;2022-12-10T05:09:17;26.00;;;7.00;;
5953;SDS011;3002;42.642;24.812;2022-12-10T05:11:43;16.30;;;5.37;;
5953;SDS011;3002;42.642;24.812;2022-12-10T05:14:12;12.47;;;4.73;;
5953;SDS011;3002;42.642;24.812;2022-12-10T05:16:39;15.57;;;5.77;;
5953;SDS011;3002;42.642;24.812;2022-12-10T05:19:04;20.07;;;6.37;;
5953;SDS011;3002;42.642;24.812;2022-12-10T05:21:30;20.10;;;7.03;;
5953;SDS011;3002;42.642;24.812;2022-12-10T05:24:14;18.33;;;6.57;;
5953;SDS011;3002;42.642;24.812;2022-12-10T05:26:41;17.93;;;7.40;;
5953;SDS011;3002;42.642;24.812;2022-12-10T05:29:07;26.70;;;7.57;;
5953;SDS011;3002;42.642;24.812;2022-12-10T05:31:33;20.53;;;7.07;;
5953;SDS011;3002;42.642;24.812;2022-12-10T05:33:59;15.80;;;7.20;;
5953;SDS011;3002;42.642;24.812;2022-12-10T05:36:29;26.87;;;9.40;;
5953;SDS011;3002;42.642;24.812;2022-12-10T05:38:56;18.23;;;7.07;;
5953;SDS011;3002;42.642;24.812;2022-12-10T05:41:23;18.27;;;6.20;;
5953;SDS011;3002;42.642;24.812;2022-12-10T05:43:54;40.33;;;10.73;;
5953;SDS011;3002;42.642;24.812;2022-12-10T05:46:22;18.53;;;9.47;;
5953;SDS011;3002;42.642;24.812;2022-12-10T05:48:50;26.57;;;7.30;;
5953;SDS011;3002;42.642;24.812;2022-12-10T05:51:17;20.63;;;8.47;;
5953;SDS011;3002;42.642;24.812;2022-12-10T05:53:45;17.00;;;7.00;;
5953;SDS011;3002;42.642;24.812;2022-12-10T05:56:12;22.63;;;9.67;;
5953;SDS011;3002;42.642;24.812;2022-12-10T05:58:40;19.40;;;8.57;;
5953;SDS011;3002;42.642;24.812;2022-12-10T06:01:07;20.30;;;6.67;;
5953;SDS011;3002;42.642;24.812;2022-12-10T06:03:35;22.27;;;7.73;;
5953;SDS011;3002;42.642;24.812;2022-12-10T06:06:00;19.40;;;7.30;;
5953;SDS011;3002;42.642;24.812;2022-12-10T06:08:26;11.30;;;5.80;;
5953;SDS011;3002;42.642;24.812;2022-12-10T06:10:51;18.40;;;8.07;;
5953;SDS011;3002;42.642;24.812;2022-12-10T06:13:18;12.90;;;8.00;;
5953;SDS011;3002;42.642;24.812;2022-12-10T06:15:44;10.97;;;6.67;;
5953;SDS011;3002;42.642;24.812;2022-12-10T06:18:10;21.47;;;10.17;;
5953;SDS011;3002;42.642;24.812;2022-12-10T06:20:37;19.23;;;10.43;;
5953;SDS011;3002;42.642;24.812;2022-12-10T06:23:03;25.77;;;13.90;;
5953;SDS011;3002;42.642;24.812;2022-12-10T06:25:29;18.37;;;10.00;;
5953;SDS011;3002;42.642;24.812;2022-12-10T06:27:55;24.83;;;10.20;;
5953;SDS011;3002;42.642;24.812;2022-12-10T06:30:20;20.97;;;9.53;;
5953;SDS011;3002;42.642;24.812;2022-12-10T06:32:46;24.50;;;11.77;;
5953;SDS011;3002;42.642;24.812;2022-12-10T06:35:11;25.43;;;10.47;;
5953;SDS011;3002;42.642;24.812;2022-12-10T06:37:37;29.33;;;12.70;;
5953;SDS011;3002;42.642;24.812;2022-12-10T06:40:03;30.10;;;11.53;;
5953;SDS011;3002;42.642;24.812;2022-12-10T06:42:29;39.53;;;13.20;;
5953;SDS011;3002;42.642;24.812;2022-12-10T06:44:54;48.53;;;23.97;;
5953;SDS011;3002;42.642;24.812;2022-12-10T06:47:20;30.17;;;16.63;;
5953;SDS011;3002;42.642;24.812;2022-12-10T06:49:48;21.63;;;11.57;;
5953;SDS011;3002;42.642;24.812;2022-12-10T06:52:13;19.67;;;9.10;;
5953;SDS011;3002;42.642;24.812;2022-12-10T06:54:39;23.80;;;10.70;;
5953;SDS011;3002;42.642;24.812;2022-12-10T06:57:05;22.27;;;9.20;;
5953;SDS011;3002;42.642;24.812;2022-12-10T06:59:31;21.33;;;10.17;;
5953;SDS011;3002;42.642;24.812;2022-12-10T07:01:56;27.07;;;12.37;;
5953;SDS011;3002;42.642;24.812;2022-12-10T07:04:22;34.97;;;11.70;;
5953;SDS011;3002;42.642;24.812;2022-12-10T07:06:48;22.63;;;9.40;;
5953;SDS011;3002;42.642;24.812;2022-12-10T07:09:14;21.10;;;10.40;;
5953;SDS011;3002;42.642;24.812;2022-12-10T07:11:41;20.60;;;9.53;;
5953;SDS011;3002;42.642;24.812;2022-12-10T07:14:06;28.87;;;10.33;;
5953;SDS011;3002;42.642;24.812;2022-12-10T07:16:32;28.37;;;10.00;;
5953;SDS011;3002;42.642;24.812;2022-12-10T07:18:59;30.97;;;12.33;;
5953;SDS011;3002;42.642;24.812;2022-12-10T07:21:29;26.27;;;11.07;;
5953;SDS011;3002;42.642;24.812;2022-12-10T07:23:57;15.27;;;8.00;;
5953;SDS011;3002;42.642;24.812;2022-12-10T07:26:25;30.10;;;15.20;;
5953;SDS011;3002;42.642;24.812;2022-12-10T07:28:54;19.37;;;12.20;;
5953;SDS011;3002;42.642;24.812;2022-12-10T07:31:20;35.07;;;13.40;;
5953;SDS011;3002;42.642;24.812;2022-12-10T07:33:47;31.10;;;13.80;;
5953;SDS011;3002;42.642;24.812;2022-12-10T07:36:12;97.67;;;22.10;;
5953;SDS011;3002;42.642;24.812;2022-12-10T07:38:39;84.63;;;25.13;;
5953;SDS011;3002;42.642;24.812;2022-12-10T07:41:09;61.57;;;19.03;;
5953;SDS011;3002;42.642;24.812;2022-12-10T07:43:36;30.37;;;13.67;;
5953;SDS011;3002;42.642;24.812;2022-12-10T07:46:07;53.77;;;16.50;;
5953;SDS011;3002;42.642;24.812;2022-12-10T07:48:33;33.33;;;13.63;;
5953;SDS011;3002;42.642;24.812;2022-12-10T07:51:02;47.57;;;15.20;;
5953;SDS011;3002;42.642;24.812;2022-12-10T07:53:30;53.03;;;19.07;;
5953;SDS011;3002;42.642;24.812;2022-12-10T07:55:55;177.63;;;34.80;;
5953;SDS011;3002;42.642;24.812;2022-12-10T07:58:21;114.03;;;31.77;;
5953;SDS011;3002;42.642;24.812;2022-12-10T08:00:47;145.90;;;31.73;;
5953;SDS011;3002;42.642;24.812;2022-12-10T08:03:12;95.37;;;26.57;;
5953;SDS011;3002;42.642;24.812;2022-12-10T08:05:38;82.93;;;22.70;;
5953;SDS011;3002;42.642;24.812;2022-12-10T08:08:04;44.73;;;17.40;;
5953;SDS011;3002;42.642;24.812;2022-12-10T08:10:30;41.07;;;18.33;;
5953;SDS011;3002;42.642;24.812;2022-12-10T08:12:58;47.90;;;17.03;;
5953;SDS011;3002;42.642;24.812;2022-12-10T08:15:23;38.10;;;14.00;;
5953;SDS011;3002;42.642;24.812;2022-12-10T08:17:49;58.63;;;19.17;;
5953;SDS011;3002;42.642;24.812;2022-12-10T08:20:14;62.07;;;21.83;;
5953;SDS011;3002;42.642;24.812;2022-12-10T08:22:39;61.50;;;16.53;;
5953;SDS011;3002;42.642;24.812;2022-12-10T08:25:05;42.40;;;18.40;;
5953;SDS011;3002;42.642;24.812;2022-12-10T08:27:31;57.87;;;17.90;;
5953;SDS011;3002;42.642;24.812;2022-12-10T08:29:56;41.20;;;19.60;;
5953;SDS011;3002;42.642;24.812;2022-12-10T08:32:22;42.20;;;17.43;;
5953;SDS011;3002;42.642;24.812;2022-12-10T08:34:47;72.33;;;22.67;;
5953;SDS011;3002;42.642;24.812;2022-12-10T08:37:13;58.77;;;21.60;;
5953;SDS011;3002;42.642;24.812;2022-12-10T08:39:39;67.50;;;23.27;;
5953;SDS011;3002;42.642;24.812;2022-12-10T08:42:05;52.87;;;20.37;;
5953;SDS011;3002;42.642;24.812;2022-12-10T08:44:31;30.30;;;14.00;;
5953;SDS011;3002;42.642;24.812;2022-12-10T08:46:56;28.00;;;13.70;;
5953;SDS011;3002;42.642;24.812;2022-12-10T08:49:22;30.23;;;13.73;;
5953;SDS011;3002;42.642;24.812;2022-12-10T08:51:47;26.40;;;12.87;;
5953;SDS011;3002;42.642;24.812;2022-12-10T08:54:13;47.23;;;16.27;;
5953;SDS011;3002;42.642;24.812;2022-12-10T08:56:38;62.90;;;20.30;;
5953;SDS011;3002;42.642;24.812;2022-12-10T08:59:04;52.37;;;17.93;;
5953;SDS011;3002;42.642;24.812;2022-12-10T09:01:30;31.30;;;14.67;;
5953;SDS011;3002;42.642;24.812;2022-12-10T09:03:56;34.63;;;15.83;;
5953;SDS011;3002;42.642;24.812;2022-12-10T09:06:22;41.63;;;20.83;;
5953;SDS011;3002;42.642;24.812;2022-12-10T09:08:51;57.20;;;20.73;;
5953;SDS011;3002;42.642;24.812;2022-12-10T09:11:25;47.10;;;17.07;;
5953;SDS011;3002;42.642;24.812;2022-12-10T09:13:58;36.10;;;13.17;;
5953;SDS011;3002;42.642;24.812;2022-12-10T09:16:28;43.60;;;14.50;;
5953;SDS011;3002;42.642;24.812;2022-12-10T09:18:56;32.70;;;13.50;;
5953;SDS011;3002;42.642;24.812;2022-12-10T09:21:21;28.80;;;10.87;;
5953;SDS011;3002;42.642;24.812;2022-12-10T09:23:47;22.60;;;9.47;;
5953;SDS011;3002;42.642;24.812;2022-12-10T09:26:15;17.50;;;6.33;;
5953;SDS011;3002;42.642;24.812;2022-12-10T09:28:41;35.43;;;11.63;;
5953;SDS011;3002;42.642;24.812;2022-12-10T09:31:08;17.43;;;7.33;;
5953;SDS011;3002;42.642;24.812;2022-12-10T09:33:34;20.40;;;7.20;;
5953;SDS011;3002;42.642;24.812;2022-12-10T09:36:02;20.07;;;7.40;;
5953;SDS011;3002;42.642;24.812;2022-12-10T09:38:29;20.67;;;8.40;;
5953;SDS011;3002;42.642;24.812;2022-12-10T09:41:05;33.30;;;8.20;;
5953;SDS011;3002;42.642;24.812;2022-12-10T09:46:26;27.53;;;9.80;;
5953;SDS011;3002;42.642;24.812;2022-12-10T09:52:17;31.20;;;11.27;;
5953;SDS011;3002;42.642;24.812;2022-12-10T09:54:49;32.07;;;12.53;;
5953;SDS011;3002;42.642;24.812;2022-12-10T09:57:29;26.50;;;10.50;;
5953;SDS011;3002;42.642;24.812;2022-12-10T10:00:26;36.93;;;14.40;;
5953;SDS011;3002;42.642;24.812;2022-12-10T10:02:56;29.33;;;9.53;;
5953;SDS011;3002;42.642;24.812;2022-12-10T10:05:28;22.80;;;8.87;;
5953;SDS011;3002;42.642;24.812;2022-12-10T10:08:04;36.87;;;9.23;;
5953;SDS011;3002;42.642;24.812;2022-12-10T10:10:37;50.27;;;18.00;;
5953;SDS011;3002;42.642;24.812;2022-12-10T10:15:33;21.33;;;7.60;;
5953;SDS011;3002;42.642;24.812;2022-12-10T10:18:08;14.93;;;6.07;;
5953;SDS011;3002;42.642;24.812;2022-12-10T10:20:39;15.07;;;5.90;;
5953;SDS011;3002;42.642;24.812;2022-12-10T10:23:05;20.03;;;7.20;;
5953;SDS011;3002;42.642;24.812;2022-12-10T10:25:31;10.17;;;4.50;;
5953;SDS011;3002;42.642;24.812;2022-12-10T10:28:09;14.17;;;6.13;;
5953;SDS011;3002;42.642;24.812;2022-12-10T10:30:37;20.90;;;5.20;;
5953;SDS011;3002;42.642;24.812;2022-12-10T10:33:09;20.30;;;7.10;;
5953;SDS011;3002;42.642;24.812;2022-12-10T10:35:56;22.87;;;6.90;;
5953;SDS011;3002;42.642;24.812;2022-12-10T10:38:24;15.47;;;5.20;;
5953;SDS011;3002;42.642;24.812;2022-12-10T10:40:56;15.40;;;5.40;;
5953;SDS011;3002;42.642;24.812;2022-12-10T10:43:24;19.30;;;6.43;;
5953;SDS011;3002;42.642;24.812;2022-12-10T10:45:59;21.10;;;7.03;;
5953;SDS011;3002;42.642;24.812;2022-12-10T10:48:29;18.40;;;7.87;;
5953;SDS011;3002;42.642;24.812;2022-12-10T10:53:46;15.20;;;5.27;;
5953;SDS011;3002;42.642;24.812;2022-12-10T10:56:29;14.60;;;5.70;;
5953;SDS011;3002;42.642;24.812;2022-12-10T11:04:17;21.20;;;8.43;;
5953;SDS011;3002;42.642;24.812;2022-12-10T11:06:47;14.10;;;5.33;;
5953;SDS011;3002;42.642;24.812;2022-12-10T11:09:22;22.93;;;7.23;;
5953;SDS011;3002;42.642;24.812;2022-12-10T11:11:58;17.70;;;5.60;;
5953;SDS011;3002;42.642;24.812;2022-12-10T11:14:29;19.07;;;5.60;;
5953;SDS011;3002;42.642;24.812;2022-12-10T11:17:03;23.90;;;8.67;;
5953;SDS011;3002;42.642;24.812;2022-12-10T11:19:43;17.67;;;4.53;;
5953;SDS011;3002;42.642;24.812;2022-12-10T11:22:23;15.20;;;4.67;;
5953;SDS011;3002;42.642;24.812;2022-12-10T11:24:54;15.87;;;5.43;;
5953;SDS011;3002;42.642;24.812;2022-12-10T11:28:06;18.60;;;5.40;;
5953;SDS011;3002;42.642;24.812;2022-12-10T11:30:26;15.53;;;6.37;;
5953;SDS011;3002;42.642;24.812;2022-12-10T11:32:55;29.40;;;10.43;;
5953;SDS011;3002;42.642;24.812;2022-12-10T11:46:28;11.37;;;2.93;;
5953;SDS011;3002;42.642;24.812;2022-12-10T12:09:02;17.50;;;7.27;;
5953;SDS011;3002;42.642;24.812;2022-12-10T12:14:22;13.70;;;3.30;;
5953;SDS011;3002;42.642;24.812;2022-12-10T12:19:25;15.40;;;5.00;;
5953;SDS011;3002;42.642;24.812;2022-12-10T12:21:59;14.63;;;3.20;;
5953;SDS011;3002;42.642;24.812;2022-12-10T12:24:34;10.03;;;2.83;;
5953;SDS011;3002;42.642;24.812;2022-12-10T12:27:07;13.07;;;3.10;;
5953;SDS011;3002;42.642;24.812;2022-12-10T12:29:41;11.27;;;3.00;;
5953;SDS011;3002;42.642;24.812;2022-12-10T12:32:20;12.30;;;3.10;;
5953;SDS011;3002;42.642;24.812;2022-12-10T12:37:18;12.37;;;4.50;;
5953;SDS011;3002;42.642;24.812;2022-12-10T12:45:08;18.50;;;5.20;;
5953;SDS011;3002;42.642;24.812;2022-12-10T12:53:15;16.17;;;5.07;;
5953;SDS011;3002;42.642;24.812;2022-12-10T12:58:38;15.53;;;6.10;;
5953;SDS011;3002;42.642;24.812;2022-12-10T13:01:19;23.30;;;7.77;;
5953;SDS011;3002;42.642;24.812;2022-12-10T13:03:57;18.30;;;5.50;;
5953;SDS011;3002;42.642;24.812;2022-12-10T13:06:24;19.93;;;7.80;;
5953;SDS011;3002;42.642;24.812;2022-12-10T13:11:41;21.63;;;8.53;;
5953;SDS011;3002;42.642;24.812;2022-12-10T13:24:21;25.90;;;8.07;;
5953;SDS011;3002;42.642;24.812;2022-12-10T13:27:28;23.70;;;7.93;;
5953;SDS011;3002;42.642;24.812;2022-12-10T13:40:56;30.07;;;9.80;;
5953;SDS011;3002;42.642;24.812;2022-12-10T13:43:40;29.60;;;11.50;;
5953;SDS011;3002;42.642;24.812;2022-12-10T13:46:32;22.07;;;8.20;;
5953;SDS011;3002;42.642;24.812;2022-12-10T13:49:18;21.10;;;5.53;;
5953;SDS011;3002;42.642;24.812;2022-12-10T13:52:00;16.30;;;7.80;;
5953;SDS011;3002;42.642;24.812;2022-12-10T14:08:31;46.03;;;16.87;;
5953;SDS011;3002;42.642;24.812;2022-12-10T14:11:02;49.70;;;15.27;;
5953;SDS011;3002;42.642;24.812;2022-12-10T14:13:43;34.13;;;11.10;;
5953;SDS011;3002;42.642;24.812;2022-12-10T14:16:14;30.93;;;11.50;;
5953;SDS011;3002;42.642;24.812;2022-12-10T14:18:44;16.90;;;7.47;;
5953;SDS011;3002;42.642;24.812;2022-12-10T14:21:17;20.23;;;8.30;;
5953;SDS011;3002;42.642;24.812;2022-12-10T14:23:46;25.93;;;9.17;;
5953;SDS011;3002;42.642;24.812;2022-12-10T14:28:54;19.40;;;6.23;;
5953;SDS011;3002;42.642;24.812;2022-12-10T14:31:23;20.37;;;7.70;;
5953;SDS011;3002;42.642;24.812;2022-12-10T14:33:54;17.27;;;5.83;;
5953;SDS011;3002;42.642;24.812;2022-12-10T14:36:26;22.33;;;6.37;;
5953;SDS011;3002;42.642;24.812;2022-12-10T14:38:54;12.60;;;4.60;;
5953;SDS011;3002;42.642;24.812;2022-12-10T14:41:21;16.70;;;4.63;;
5953;SDS011;3002;42.642;24.812;2022-12-10T14:43:48;10.03;;;2.57;;
5953;SDS011;3002;42.642;24.812;2022-12-10T14:46:33;7.50;;;2.00;;
5953;SDS011;3002;42.642;24.812;2022-12-10T14:48:58;4.50;;;1.63;;
5953;SDS011;3002;42.642;24.812;2022-12-10T14:51:26;9.97;;;2.43;;
5953;SDS011;3002;42.642;24.812;2022-12-10T14:53:57;4.63;;;1.93;;
5953;SDS011;3002;42.642;24.812;2022-12-10T14:56:33;13.87;;;4.20;;
5953;SDS011;3002;42.642;24.812;2022-12-10T15:01:39;14.83;;;3.10;;
5953;SDS011;3002;42.642;24.812;2022-12-10T15:04:11;33.70;;;2.80;;
5953;SDS011;3002;42.642;24.812;2022-12-10T15:06:39;16.30;;;3.40;;
5953;SDS011;3002;42.642;24.812;2022-12-10T15:09:06;9.23;;;3.07;;
5953;SDS011;3002;42.642;24.812;2022-12-10T15:11:39;20.60;;;8.07;;
5953;SDS011;3002;42.642;24.812;2022-12-10T15:14:05;73.37;;;21.60;;
5953;SDS011;3002;42.642;24.812;2022-12-10T15:16:43;90.07;;;26.63;;
5953;SDS011;3002;42.642;24.812;2022-12-10T15:19:21;60.27;;;21.27;;
5953;SDS011;3002;42.642;24.812;2022-12-10T15:21:47;48.93;;;15.60;;
5953;SDS011;3002;42.642;24.812;2022-12-10T15:24:27;50.00;;;15.87;;
5953;SDS011;3002;42.642;24.812;2022-12-10T15:27:00;37.37;;;13.63;;
5953;SDS011;3002;42.642;24.812;2022-12-10T15:31:55;41.60;;;16.47;;
5953;SDS011;3002;42.642;24.812;2022-12-10T15:34:25;20.80;;;7.30;;
5953;SDS011;3002;42.642;24.812;2022-12-10T15:36:54;17.47;;;6.00;;
5953;SDS011;3002;42.642;24.812;2022-12-10T15:39:28;44.07;;;15.70;;
5953;SDS011;3002;42.642;24.812;2022-12-10T15:41:56;42.43;;;16.00;;
5953;SDS011;3002;42.642;24.812;2022-12-10T15:44:31;40.87;;;14.57;;
5953;SDS011;3002;42.642;24.812;2022-12-10T15:47:19;32.37;;;14.50;;
5953;SDS011;3002;42.642;24.812;2022-12-10T15:49:45;59.30;;;21.00;;
5953;SDS011;3002;42.642;24.812;2022-12-10T15:54:59;54.30;;;21.90;;
5953;SDS011;3002;42.642;24.812;2022-12-10T15:57:26;48.53;;;17.97;;
5953;SDS011;3002;42.642;24.812;2022-12-10T15:59:56;58.70;;;18.30;;
5953;SDS011;3002;42.642;24.812;2022-12-10T16:02:46;38.80;;;16.37;;
5953;SDS011;3002;42.642;24.812;2022-12-10T16:05:27;33.80;;;11.97;;
5953;SDS011;3002;42.642;24.812;2022-12-10T16:10:48;38.17;;;13.10;;
5953;SDS011;3002;42.642;24.812;2022-12-10T16:16:08;35.80;;;11.63;;
5953;SDS011;3002;42.642;24.812;2022-12-10T16:18:37;45.10;;;10.40;;
5953;SDS011;3002;42.642;24.812;2022-12-10T16:21:06;21.90;;;6.47;;
5953;SDS011;3002;42.642;24.812;2022-12-10T16:23:33;31.30;;;6.30;;
5953;SDS011;3002;42.642;24.812;2022-12-10T16:25:59;18.93;;;6.50;;
5953;SDS011;3002;42.642;24.812;2022-12-10T16:28:25;35.37;;;9.63;;
5953;SDS011;3002;42.642;24.812;2022-12-10T16:30:52;28.50;;;9.07;;
5953;SDS011;3002;42.642;24.812;2022-12-10T16:33:22;28.70;;;5.20;;
5953;SDS011;3002;42.642;24.812;2022-12-10T16:35:50;16.67;;;3.97;;
5953;SDS011;3002;42.642;24.812;2022-12-10T16:38:17;19.43;;;3.67;;
5953;SDS011;3002;42.642;24.812;2022-12-10T16:40:45;28.83;;;6.90;;
5953;SDS011;3002;42.642;24.812;2022-12-10T16:43:22;32.70;;;8.47;;
5953;SDS011;3002;42.642;24.812;2022-12-10T16:45:53;27.10;;;7.47;;
5953;SDS011;3002;42.642;24.812;2022-12-10T16:48:19;42.77;;;11.97;;
5953;SDS011;3002;42.642;24.812;2022-12-10T16:50:46;55.83;;;20.40;;
5953;SDS011;3002;42.642;24.812;2022-12-10T16:53:17;44.57;;;16.57;;
5953;SDS011;3002;42.642;24.812;2022-12-10T16:55:43;32.00;;;13.10;;
5953;SDS011;3002;42.642;24.812;2022-12-10T16:58:10;42.17;;;17.47;;
5953;SDS011;3002;42.642;24.812;2022-12-10T17:00:36;24.37;;;12.37;;
5953;SDS011;3002;42.642;24.812;2022-12-10T17:03:02;30.63;;;9.53;;
5953;SDS011;3002;42.642;24.812;2022-12-10T17:05:33;33.50;;;7.20;;
5953;SDS011;3002;42.642;24.812;2022-12-10T17:08:03;26.20;;;8.33;;
5953;SDS011;3002;42.642;24.812;2022-12-10T17:10:29;38.93;;;10.70;;
5953;SDS011;3002;42.642;24.812;2022-12-10T17:13:14;35.53;;;13.73;;
5953;SDS011;3002;42.642;24.812;2022-12-10T17:15:41;44.70;;;15.13;;